Time;durP1;ratioP1;P1;durP2;ratioP2;P2;SDS_P1;SDS_P2;PMS_P1;PMS_P2;Temp;Humidity;BMP_temperature;BMP_pressure;BME280_temperature;BME280_humidity;BME280_pressure;Samples;Min_cycle;Max_cycle;Signal;HPM_P1;HPM_P2
2023/10/04 00:00:28;;;;;;;3.88;1.98;;;11.70;99.90;;;;;;5101454;28;20232;-57
2023/10/04 00:02:56;;;;;;;3.40;2.03;;;11.70;99.90;;;;;;5105504;28;20611;-57
2023/10/04 00:05:25;;;;;;;2.45;2.08;;;11.70;99.90;;;;;;5106964;28;20208;-57
2023/10/04 00:07:55;;;;;;;2.75;1.65;;;11.70;99.90;;;;;;5103802;28;20579;-57
2023/10/04 00:10:23;;;;;;;4.75;1.90;;;11.70;99.90;;;;;;5101623;28;20230;-56
2023/10/04 00:12:52;;;;;;;3.08;1.50;;;11.70;99.90;;;;;;5108482;28;20204;-58
2023/10/04 00:15:24;;;;;;;3.78;2.10;;;11.70;99.90;;;;;;5102374;28;20211;-58
2023/10/04 00:17:53;;;;;;;7.70;2.17;;;11.70;99.90;;;;;;5108770;27;20721;-57
2023/10/04 00:20:22;;;;;;;5.57;1.80;;;11.60;99.90;;;;;;5107024;27;20235;-56
2023/10/04 00:22:54;;;;;;;3.53;2.10;;;11.60;99.90;;;;;;5104039;28;20231;-56
2023/10/04 00:25:22;;;;;;;3.42;2.15;;;11.60;99.90;;;;;;5104777;28;20262;-56
2023/10/04 00:27:50;;;;;;;2.65;1.92;;;11.60;99.90;;;;;;5110057;28;20299;-58
2023/10/04 00:30:19;;;;;;;3.22;1.92;;;11.50;99.90;;;;;;5100430;28;20310;-58
2023/10/04 00:32:48;;;;;;;2.55;2.20;;;11.60;99.90;;;;;;5110480;28;20204;-59
2023/10/04 00:35:17;;;;;;;4.82;2.13;;;11.50;99.90;;;;;;5099536;28;20200;-59
2023/10/04 00:37:51;;;;;;;3.55;1.70;;;11.50;99.90;;;;;;5103043;28;20192;-58
2023/10/04 00:40:21;;;;;;;10.38;2.08;;;11.50;99.90;;;;;;5112596;27;20227;-59
2023/10/04 00:42:50;;;;;;;5.75;2.30;;;11.50;99.90;;;;;;5111076;28;20204;-58
2023/10/04 00:45:19;;;;;;;6.72;1.60;;;11.50;99.90;;;;;;5103626;28;20196;-58
2023/10/04 00:47:50;;;;;;;6.88;2.25;;;11.40;99.90;;;;;;5110890;28;20224;-59
2023/10/04 00:50:22;;;;;;;1.73;1.60;;;11.40;99.90;;;;;;5103368;28;20806;-58
2023/10/04 00:52:52;;;;;;;3.97;1.90;;;11.40;99.90;;;;;;5105410;28;20211;-59
2023/10/04 00:55:20;;;;;;;3.60;1.77;;;11.40;99.90;;;;;;5109522;28;20254;-59
2023/10/04 00:57:49;;;;;;;3.17;1.45;;;11.30;99.90;;;;;;5110035;28;20711;-59
2023/10/04 01:00:18;;;;;;;3.10;1.77;;;11.30;99.90;;;;;;5102393;28;20291;-59
2023/10/04 01:02:46;;;;;;;2.00;1.50;;;11.30;99.90;;;;;;5108379;28;20226;-58
2023/10/04 01:05:16;;;;;;;3.72;1.63;;;11.30;99.90;;;;;;5101010;27;20211;-58
2023/10/04 01:07:44;;;;;;;9.50;1.95;;;11.30;99.90;;;;;;5103740;28;20224;-59
2023/10/04 01:10:15;;;;;;;10.50;1.95;;;11.30;99.90;;;;;;5118780;28;20268;-59
2023/10/04 01:12:46;;;;;;;3.15;1.88;;;11.20;99.90;;;;;;5108261;28;20199;-59
2023/10/04 01:17:56;;;;;;;9.75;2.17;;;11.20;99.90;;;;;;5106006;28;20199;-59
2023/10/04 01:20:27;;;;;;;2.20;2.00;;;11.20;99.90;;;;;;5106539;28;20282;-58
2023/10/04 01:23:00;;;;;;;4.38;2.30;;;11.20;99.90;;;;;;5103987;28;20211;-59
2023/10/04 01:25:32;;;;;;;3.08;2.22;;;11.20;99.90;;;;;;5107833;28;20291;-58
2023/10/04 01:28:01;;;;;;;6.70;2.10;;;11.10;99.90;;;;;;5102617;28;20661;-59
2023/10/04 01:30:29;;;;;;;4.57;2.30;;;11.10;99.90;;;;;;5102465;28;20316;-58
2023/10/04 01:33:00;;;;;;;9.60;2.20;;;11.10;99.90;;;;;;5102728;28;20200;-56
2023/10/04 01:35:28;;;;;;;4.88;1.83;;;11.00;99.90;;;;;;5104457;28;20705;-57
2023/10/04 01:37:57;;;;;;;3.50;2.55;;;11.00;99.90;;;;;;5091253;28;20242;-56
2023/10/04 01:40:26;;;;;;;2.15;1.95;;;11.00;99.90;;;;;;5108326;28;20284;-56
2023/10/04 01:42:55;;;;;;;5.57;2.22;;;11.00;99.90;;;;;;5109387;28;20768;-57
2023/10/04 01:45:23;;;;;;;3.50;2.10;;;11.00;99.90;;;;;;5101109;28;20288;-58
2023/10/04 01:47:51;;;;;;;4.03;2.20;;;11.00;99.90;;;;;;5110499;28;20631;-58
2023/10/04 01:50:19;;;;;;;3.45;1.70;;;11.00;99.90;;;;;;5105452;28;20256;-58
2023/10/04 01:52:48;;;;;;;4.22;1.70;;;10.90;99.90;;;;;;5107548;28;20291;-58
2023/10/04 01:55:18;;;;;;;6.03;1.92;;;10.90;99.90;;;;;;5110077;28;20344;-58
2023/10/04 01:57:46;;;;;;;4.95;1.90;;;10.90;99.90;;;;;;5114643;28;20845;-59
2023/10/04 02:00:20;;;;;;;5.75;2.03;;;10.90;99.90;;;;;;5096460;28;20267;-58
2023/10/04 02:02:49;;;;;;;2.92;2.25;;;10.90;99.90;;;;;;5110597;28;20204;-59
2023/10/04 02:05:24;;;;;;;5.03;1.95;;;10.90;99.90;;;;;;5107448;28;20260;-58
2023/10/04 02:07:53;;;;;;;4.65;2.30;;;10.90;99.90;;;;;;5107600;28;20219;-59
2023/10/04 02:10:23;;;;;;;4.75;1.92;;;10.80;99.90;;;;;;5117189;27;20708;-58
2023/10/04 02:12:53;;;;;;;1.75;1.55;;;10.90;99.90;;;;;;5107662;28;20239;-58
2023/10/04 02:15:21;;;;;;;3.20;1.88;;;10.80;99.90;;;;;;5112502;27;20292;-59
2023/10/04 02:17:53;;;;;;;2.45;1.90;;;10.80;99.90;;;;;;5113139;28;20196;-58
2023/10/04 02:20:23;;;;;;;5.75;1.95;;;10.80;99.90;;;;;;5104246;28;20286;-58
2023/10/04 02:22:51;;;;;;;8.30;2.15;;;10.80;99.90;;;;;;5099671;28;20556;-58
2023/10/04 02:25:19;;;;;;;4.95;2.45;;;10.80;99.90;;;;;;5114398;28;20211;-58
2023/10/04 02:27:49;;;;;;;6.68;2.28;;;10.70;99.90;;;;;;5107098;28;20224;-58
2023/10/04 02:30:21;;;;;;;2.95;1.95;;;10.70;99.90;;;;;;5110608;28;20272;-58
2023/10/04 02:32:50;;;;;;;4.75;1.88;;;10.70;99.90;;;;;;5114803;28;20294;-58
2023/10/04 02:35:27;;;;;;;2.22;1.95;;;10.70;99.90;;;;;;5104361;28;20753;-58
2023/10/04 02:37:59;;;;;;;4.68;2.03;;;10.70;99.90;;;;;;5100276;28;20200;-58
2023/10/04 02:40:32;;;;;;;4.60;2.17;;;10.70;99.90;;;;;;5102021;28;20255;-58
2023/10/04 02:43:04;;;;;;;2.72;1.85;;;10.70;99.90;;;;;;5093943;28;20200;-59
2023/10/04 02:45:32;;;;;;;9.45;1.92;;;10.70;99.90;;;;;;5103538;28;20207;-58
2023/10/04 02:48:00;;;;;;;4.50;2.03;;;10.70;99.90;;;;;;5115990;27;20223;-58
2023/10/04 02:50:28;;;;;;;3.33;2.10;;;10.60;99.90;;;;;;5111823;28;20223;-58
2023/10/04 02:52:56;;;;;;;8.77;2.42;;;10.60;99.90;;;;;;5102537;28;20631;-58
2023/10/04 02:55:24;;;;;;;4.68;2.15;;;10.60;99.90;;;;;;5112766;28;20208;-57
2023/10/04 02:57:52;;;;;;;3.72;2.60;;;10.60;99.90;;;;;;5112681;28;20239;-58
2023/10/04 03:00:21;;;;;;;7.35;2.35;;;10.60;99.90;;;;;;5101487;28;20239;-57
2023/10/04 03:02:50;;;;;;;5.82;2.10;;;10.60;99.90;;;;;;5108977;28;20200;-56
2023/10/04 03:05:19;;;;;;;3.10;2.38;;;10.60;99.90;;;;;;5110804;28;20301;-58
2023/10/04 03:07:49;;;;;;;5.45;2.08;;;10.60;99.90;;;;;;5110309;28;20614;-57
2023/10/04 03:10:24;;;;;;;3.45;2.15;;;10.60;99.90;;;;;;5110135;28;20224;-56
2023/10/04 03:12:53;;;;;;;2.95;1.80;;;10.60;99.90;;;;;;5098432;28;20211;-57
2023/10/04 03:15:23;;;;;;;2.15;2.00;;;10.60;99.90;;;;;;5100688;28;20287;-56
2023/10/04 03:17:52;;;;;;;2.42;1.98;;;10.60;99.90;;;;;;5107637;28;20286;-56
2023/10/04 03:20:21;;;;;;;4.40;2.00;;;10.60;99.90;;;;;;5103661;28;20231;-56
2023/10/04 03:22:49;;;;;;;2.35;2.15;;;10.60;99.90;;;;;;5111388;28;20208;-57
2023/10/04 03:25:18;;;;;;;4.30;2.05;;;10.60;99.90;;;;;;5111445;28;20200;-58
2023/10/04 03:27:47;;;;;;;4.50;2.13;;;10.60;99.90;;;;;;5101176;28;20266;-56
2023/10/04 03:30:15;;;;;;;3.00;1.83;;;10.60;99.90;;;;;;5107690;28;20228;-57
2023/10/04 03:32:49;;;;;;;4.25;1.73;;;10.60;99.90;;;;;;5103584;28;20234;-57
2023/10/04 03:35:20;;;;;;;3.15;2.08;;;10.60;99.90;;;;;;5112288;28;20286;-56
2023/10/04 03:37:54;;;;;;;5.68;2.38;;;10.50;99.90;;;;;;5100929;28;20291;-56
2023/10/04 03:40:23;;;;;;;4.68;1.90;;;10.60;99.90;;;;;;5109108;28;20665;-56
2023/10/04 03:42:50;;;;;;;3.03;1.92;;;10.60;99.90;;;;;;5107049;28;20280;-58
2023/10/04 03:45:20;;;;;;;12.73;1.90;;;10.60;99.90;;;;;;5100181;28;20669;-57
2023/10/04 03:47:50;;;;;;;4.35;2.20;;;10.50;99.90;;;;;;5107383;28;20211;-57
2023/10/04 03:50:19;;;;;;;8.73;1.88;;;10.50;99.90;;;;;;5120254;27;20277;-56
2023/10/04 03:52:48;;;;;;;5.28;1.88;;;10.50;99.90;;;;;;5106590;27;20238;-57
2023/10/04 03:55:17;;;;;;;3.75;1.83;;;10.50;99.90;;;;;;5109583;28;20204;-56
2023/10/04 03:57:45;;;;;;;2.45;1.90;;;10.50;99.90;;;;;;5111595;28;20696;-56
2023/10/04 04:00:17;;;;;;;2.97;1.90;;;10.50;99.90;;;;;;5100545;27;20327;-56
2023/10/04 04:02:45;;;;;;;3.40;1.90;;;10.50;99.90;;;;;;5099773;28;20200;-56
2023/10/04 04:05:14;;;;;;;5.95;1.88;;;10.50;99.90;;;;;;5105646;28;20559;-56
2023/10/04 04:07:43;;;;;;;3.65;2.10;;;10.50;99.90;;;;;;5098381;28;20207;-56
2023/10/04 04:10:13;;;;;;;5.60;1.95;;;10.50;99.90;;;;;;5106863;28;20302;-58
2023/10/04 04:12:41;;;;;;;3.53;1.58;;;10.50;99.90;;;;;;5095727;28;20258;-59
2023/10/04 04:15:09;;;;;;;4.82;1.80;;;10.50;99.90;;;;;;5098251;28;20201;-58
2023/10/04 04:17:38;;;;;;;8.30;2.15;;;10.50;99.90;;;;;;5100130;28;20262;-58
2023/10/04 04:20:14;;;;;;;7.20;2.20;;;10.40;99.90;;;;;;5109168;28;20649;-58
2023/10/04 04:22:47;;;;;;;4.88;2.00;;;10.40;99.90;;;;;;5107215;28;20294;-58
2023/10/04 04:25:19;;;;;;;3.15;1.80;;;10.40;99.90;;;;;;5103390;28;20204;-58
2023/10/04 04:27:49;;;;;;;2.45;2.25;;;10.40;99.90;;;;;;5105951;28;20204;-59
2023/10/04 04:30:19;;;;;;;5.72;2.17;;;10.40;99.90;;;;;;5099558;28;20234;-58
2023/10/04 04:32:49;;;;;;;2.88;1.38;;;10.40;99.90;;;;;;5104505;28;20261;-58
2023/10/04 04:35:22;;;;;;;6.32;1.90;;;10.40;99.90;;;;;;5103258;28;20626;-58
2023/10/04 04:37:54;;;;;;;4.03;2.10;;;10.40;99.90;;;;;;5098716;28;20257;-58
2023/10/04 04:40:30;;;;;;;3.42;2.05;;;10.40;99.90;;;;;;5105388;28;20645;-58
2023/10/04 04:43:14;;;;;;;8.43;2.67;;;10.40;99.90;;;;;;5108644;28;20200;-59
2023/10/04 04:45:43;;;;;;;5.55;2.40;;;10.40;99.90;;;;;;5102512;28;20235;-58
2023/10/04 04:48:15;;;;;;;4.25;2.03;;;10.40;99.90;;;;;;5104234;28;20757;-58
2023/10/04 04:50:43;;;;;;;3.17;1.80;;;10.40;99.90;;;;;;5104744;28;20272;-58
2023/10/04 04:53:17;;;;;;;3.58;2.00;;;10.40;99.90;;;;;;5107258;28;20200;-58
2023/10/04 04:55:45;;;;;;;6.30;1.83;;;10.40;99.90;;;;;;5104973;28;20210;-58
2023/10/04 04:58:13;;;;;;;6.45;2.00;;;10.40;99.90;;;;;;5098484;28;20246;-58
2023/10/04 05:00:43;;;;;;;4.43;1.98;;;10.40;99.90;;;;;;5103876;28;20233;-58
2023/10/04 05:03:11;;;;;;;5.75;2.25;;;10.40;99.90;;;;;;5099481;28;20204;-58
2023/10/04 05:05:40;;;;;;;4.43;1.98;;;10.40;99.90;;;;;;5102443;28;20720;-58
2023/10/04 05:08:08;;;;;;;4.32;2.17;;;10.40;99.90;;;;;;5107244;28;20638;-58
2023/10/04 05:10:40;;;;;;;2.22;1.70;;;10.40;99.90;;;;;;5103192;27;20243;-58
2023/10/04 05:13:09;;;;;;;8.30;2.05;;;10.40;99.90;;;;;;5098214;28;20293;-58
2023/10/04 05:15:38;;;;;;;6.78;1.98;;;10.40;99.90;;;;;;5103120;28;20245;-58
2023/10/04 05:18:15;;;;;;;4.28;2.13;;;10.40;99.90;;;;;;5104395;28;20210;-58
2023/10/04 05:20:43;;;;;;;4.72;2.20;;;10.40;99.90;;;;;;5110358;28;20223;-59
2023/10/04 05:23:11;;;;;;;5.70;1.98;;;10.40;99.90;;;;;;5108404;28;20287;-58
2023/10/04 05:25:40;;;;;;;10.07;2.22;;;10.30;99.90;;;;;;5113130;28;20751;-59
2023/10/04 05:28:11;;;;;;;7.43;2.50;;;10.30;99.90;;;;;;5105874;28;20642;-58
2023/10/04 05:30:41;;;;;;;5.50;2.13;;;10.30;99.90;;;;;;5109337;28;20235;-61
2023/10/04 05:33:10;;;;;;;4.47;1.88;;;10.30;99.90;;;;;;5111813;28;20204;-60
2023/10/04 05:35:38;;;;;;;6.18;2.17;;;10.30;99.90;;;;;;5111247;28;20200;-60
2023/10/04 05:38:06;;;;;;;5.10;2.30;;;10.20;99.90;;;;;;5111888;28;20223;-61
2023/10/04 05:40:35;;;;;;;3.08;1.92;;;10.30;99.90;;;;;;5115163;28;20247;-60
2023/10/04 05:43:04;;;;;;;4.28;1.73;;;10.30;99.90;;;;;;5115699;28;20286;-60
2023/10/04 05:45:33;;;;;;;5.78;2.05;;;10.30;99.90;;;;;;5114928;28;20680;-61
2023/10/04 05:48:00;;;;;;;9.00;2.35;;;10.30;99.90;;;;;;5120220;27;20207;-60
2023/10/04 05:50:32;;;;;;;2.78;1.85;;;10.40;99.90;;;;;;5118364;27;20224;-60
2023/10/04 05:53:04;;;;;;;5.88;2.38;;;10.40;99.90;;;;;;5120411;27;20636;-60
2023/10/04 05:55:32;;;;;;;3.03;1.90;;;10.40;99.90;;;;;;5118114;27;20250;-60
2023/10/04 05:58:00;;;;;;;8.13;2.30;;;10.50;99.90;;;;;;5115437;28;20574;-60
2023/10/04 06:00:30;;;;;;;4.15;2.28;;;10.50;99.90;;;;;;5131733;27;20779;-60
2023/10/04 06:02:59;;;;;;;3.63;1.80;;;10.50;99.90;;;;;;5131387;27;20204;-60
2023/10/04 06:05:28;;;;;;;6.43;2.53;;;10.50;99.90;;;;;;5114897;28;20561;-60
2023/10/04 06:07:56;;;;;;;6.03;2.78;;;10.60;99.90;;;;;;5107064;28;20283;-60
2023/10/04 06:10:24;;;;;;;4.18;2.05;;;10.50;99.90;;;;;;5131142;27;20230;-60
2023/10/04 06:12:53;;;;;;;9.38;2.40;;;10.50;99.90;;;;;;5132010;27;20592;-60
2023/10/04 06:15:21;;;;;;;4.15;2.25;;;10.50;99.90;;;;;;5114714;28;20257;-60
2023/10/04 06:17:51;;;;;;;6.90;2.20;;;10.50;99.90;;;;;;5118164;27;20207;-60
2023/10/04 06:20:28;;;;;;;7.47;2.35;;;10.50;99.90;;;;;;5127918;27;20235;-60
2023/10/04 06:22:57;;;;;;;3.70;2.78;;;10.50;99.90;;;;;;5119248;27;20235;-61
2023/10/04 06:25:25;;;;;;;6.00;2.72;;;10.50;99.90;;;;;;5135085;27;20245;-60
2023/10/04 06:27:54;;;;;;;5.90;3.22;;;10.50;99.90;;;;;;5135119;27;20231;-60
2023/10/04 06:30:23;;;;;;;6.88;3.10;;;10.50;99.90;;;;;;5127439;27;20266;-60
2023/10/04 06:32:53;;;;;;;9.35;3.30;;;10.50;99.90;;;;;;5117898;27;20203;-60
2023/10/04 06:35:23;;;;;;;7.05;3.13;;;10.50;99.90;;;;;;5119525;27;20242;-60
2023/10/04 06:37:51;;;;;;;8.27;3.55;;;10.60;99.90;;;;;;5114513;28;20199;-60
2023/10/04 06:40:20;;;;;;;4.38;2.78;;;10.60;99.90;;;;;;5114269;28;20250;-60
2023/10/04 06:42:49;;;;;;;6.20;3.40;;;10.70;99.90;;;;;;5131663;27;20287;-60
2023/10/04 06:45:17;;;;;;;8.73;3.22;;;10.80;99.90;;;;;;5122630;27;20283;-60
2023/10/04 06:47:46;;;;;;;7.45;2.92;;;10.80;99.90;;;;;;5114241;28;20887;-59
2023/10/04 06:50:18;;;;;;;6.93;3.00;;;10.90;99.90;;;;;;5128151;27;20309;-60
2023/10/04 06:52:47;;;;;;;9.90;3.78;;;11.00;99.90;;;;;;5123942;27;20203;-60
2023/10/04 06:55:15;;;;;;;6.25;3.00;;;11.00;99.90;;;;;;5120703;27;20199;-60
2023/10/04 06:57:43;;;;;;;6.60;3.20;;;11.10;99.90;;;;;;5134908;27;20287;-60
2023/10/04 07:00:16;;;;;;;6.88;3.30;;;11.20;99.90;;;;;;5120000;27;20230;-59
2023/10/04 07:02:45;;;;;;;7.15;3.25;;;11.20;99.90;;;;;;5113897;28;20208;-59
2023/10/04 07:05:17;;;;;;;5.68;3.30;;;11.30;99.90;;;;;;5113995;28;20200;-60
2023/10/04 07:07:45;;;;;;;7.30;3.15;;;11.40;99.90;;;;;;5122359;27;20246;-60
2023/10/04 07:10:15;;;;;;;9.85;3.55;;;11.50;99.90;;;;;;5113239;28;20723;-59
2023/10/04 07:12:45;;;;;;;16.67;3.17;;;11.50;99.90;;;;;;5113955;28;20298;-59
2023/10/04 07:15:13;;;;;;;6.00;3.20;;;11.60;99.90;;;;;;5113238;28;20226;-59
2023/10/04 07:17:42;;;;;;;11.23;2.88;;;11.70;99.90;;;;;;5113656;28;20212;-60
2023/10/04 07:20:14;;;;;;;11.35;3.35;;;11.70;99.90;;;;;;5108306;28;20231;-58
2023/10/04 07:22:45;;;;;;;7.90;3.67;;;11.80;99.90;;;;;;5109917;28;20609;-59
2023/10/04 07:25:13;;;;;;;7.05;3.50;;;11.90;99.90;;;;;;5107144;28;20245;-59
2023/10/04 07:27:42;;;;;;;5.57;3.50;;;12.00;99.90;;;;;;5113434;28;20260;-59
2023/10/04 07:30:12;;;;;;;7.18;3.72;;;12.00;99.90;;;;;;5112763;28;20643;-59
2023/10/04 07:32:42;;;;;;;8.23;3.55;;;12.10;99.90;;;;;;5122135;27;20548;-59
2023/10/04 07:35:13;;;;;;;6.07;3.60;;;12.10;99.90;;;;;;5113176;28;20204;-59
2023/10/04 07:37:41;;;;;;;12.07;3.72;;;12.20;99.90;;;;;;5119740;27;20684;-60
2023/10/04 07:40:13;;;;;;;9.32;3.63;;;12.20;99.90;;;;;;5118880;27;20219;-60
2023/10/04 07:42:42;;;;;;;11.00;3.83;;;12.30;99.90;;;;;;5122554;27;20606;-59
2023/10/04 07:45:10;;;;;;;10.05;3.63;;;12.40;99.90;;;;;;5118205;27;20683;-59
2023/10/04 07:47:41;;;;;;;6.28;3.15;;;12.50;99.90;;;;;;5114992;27;20737;-59
2023/10/04 07:50:10;;;;;;;10.55;3.65;;;12.60;99.90;;;;;;5112507;28;20223;-59
2023/10/04 07:52:38;;;;;;;6.80;3.63;;;12.60;99.90;;;;;;5130683;27;20265;-59
2023/10/04 07:55:12;;;;;;;11.85;3.55;;;12.70;99.90;;;;;;5133419;27;20227;-58
2023/10/04 07:57:42;;;;;;;10.95;3.22;;;12.80;99.90;;;;;;5132657;27;20792;-59
2023/10/04 08:00:13;;;;;;;8.65;3.42;;;12.80;99.90;;;;;;5132848;27;20226;-59
2023/10/04 08:02:46;;;;;;;7.57;3.10;;;12.90;99.90;;;;;;5132358;27;20199;-60
2023/10/04 08:05:19;;;;;;;5.82;3.72;;;13.00;99.90;;;;;;5132926;27;20196;-59
2023/10/04 08:07:48;;;;;;;8.27;3.88;;;13.20;99.90;;;;;;5133081;27;20207;-60
2023/10/04 08:10:16;;;;;;;6.97;3.50;;;13.30;99.90;;;;;;5133015;27;20230;-60
2023/10/04 08:12:45;;;;;;;7.82;3.53;;;13.40;99.90;;;;;;5132895;27;20647;-59
2023/10/04 08:15:14;;;;;;;6.60;3.00;;;13.40;99.90;;;;;;5133090;27;20595;-60
2023/10/04 08:17:43;;;;;;;7.40;3.13;;;13.50;99.90;;;;;;5133074;27;20227;-60
2023/10/04 08:20:13;;;;;;;9.18;3.08;;;13.60;99.90;;;;;;5132391;27;20218;-60
2023/10/04 08:22:41;;;;;;;8.77;3.13;;;13.70;99.90;;;;;;5133009;27;20231;-60
2023/10/04 08:25:10;;;;;;;10.45;3.38;;;13.70;99.90;;;;;;5132634;27;20290;-60
2023/10/04 08:27:39;;;;;;;7.72;3.13;;;13.80;99.90;;;;;;5132899;27;20261;-60
2023/10/04 08:30:11;;;;;;;7.80;2.72;;;13.90;99.90;;;;;;5132258;27;20438;-60
2023/10/04 08:32:40;;;;;;;7.15;3.17;;;14.10;99.90;;;;;;5132569;27;20223;-60
2023/10/04 08:35:21;;;;;;;8.98;2.60;;;14.10;99.90;;;;;;5132239;27;20203;-59
2023/10/04 08:37:49;;;;;;;7.57;2.95;;;14.20;99.90;;;;;;5132227;27;20207;-60
2023/10/04 08:40:18;;;;;;;8.02;2.78;;;14.30;99.90;;;;;;5115814;27;20712;-60
2023/10/04 08:42:48;;;;;;;5.88;2.65;;;14.40;99.90;;;;;;5132000;27;20205;-59
2023/10/04 08:45:17;;;;;;;8.45;2.75;;;14.60;99.90;;;;;;5132579;27;20206;-58
2023/10/04 08:47:48;;;;;;;7.47;2.50;;;14.70;99.90;;;;;;5132800;27;20268;-59
2023/10/04 08:50:17;;;;;;;8.95;2.22;;;14.90;99.90;;;;;;5132067;27;20631;-59
2023/10/04 08:52:46;;;;;;;7.13;2.40;;;15.00;99.90;;;;;;5132150;27;20231;-58
2023/10/04 08:55:17;;;;;;;5.15;1.85;;;15.20;99.90;;;;;;5132318;27;20241;-60
2023/10/04 08:57:45;;;;;;;5.15;2.15;;;15.40;99.90;;;;;;5132197;27;20249;-60
2023/10/04 09:00:14;;;;;;;6.40;1.40;;;15.60;99.90;;;;;;5126887;27;20252;-58
2023/10/04 09:03:00;;;;;;;7.32;1.65;;;15.90;99.90;;;;;;5111682;28;20208;-60
2023/10/04 09:05:28;;;;;;;7.90;2.10;;;16.10;99.90;;;;;;5111714;28;20207;-60
2023/10/04 09:07:56;;;;;;;4.50;1.90;;;16.10;99.90;;;;;;5111720;28;20219;-59
2023/10/04 09:10:25;;;;;;;4.75;1.55;;;16.00;99.90;;;;;;5111089;28;20232;-59
2023/10/04 09:12:53;;;;;;;6.97;2.10;;;15.80;99.90;;;;;;5111879;28;20224;-59
2023/10/04 09:15:26;;;;;;;5.22;1.55;;;15.70;99.90;;;;;;5115823;28;20614;-59
2023/10/04 09:17:57;;;;;;;5.75;1.80;;;15.60;99.90;;;;;;5115941;28;20203;-59
2023/10/04 09:20:29;;;;;;;5.50;1.90;;;15.40;99.90;;;;;;5115483;28;20245;-61
2023/10/04 09:22:59;;;;;;;10.13;1.95;;;15.30;99.90;;;;;;5115809;28;20210;-59
2023/10/04 09:25:36;;;;;;;7.20;1.70;;;15.20;99.90;;;;;;5115921;28;20295;-60
2023/10/04 09:28:05;;;;;;;5.25;1.58;;;15.20;99.90;;;;;;5116036;28;20203;-60
2023/10/04 09:30:36;;;;;;;10.18;1.70;;;15.40;99.90;;;;;;5115429;28;20223;-60
2023/10/04 09:33:05;;;;;;;5.13;1.40;;;15.70;99.90;;;;;;5115858;28;20307;-61
2023/10/04 09:35:44;;;;;;;8.77;1.35;;;15.90;99.90;;;;;;5115681;28;20251;-60
2023/10/04 09:38:16;;;;;;;5.88;1.10;;;16.20;99.90;;;;;;5120278;27;20206;-60
2023/10/04 09:40:53;;;;;;;5.57;1.30;;;16.40;99.90;;;;;;5126509;27;20313;-60
2023/10/04 09:43:32;;;;;;;5.53;1.42;;;16.30;99.90;;;;;;5115535;28;20199;-60
2023/10/04 09:46:00;;;;;;;7.38;1.55;;;16.20;99.90;;;;;;5114016;28;20233;-60
2023/10/04 09:48:31;;;;;;;4.70;1.50;;;16.20;99.90;;;;;;5115566;28;20203;-60
2023/10/04 09:51:01;;;;;;;6.40;1.15;;;16.50;99.90;;;;;;5114126;28;20646;-60
2023/10/04 09:53:29;;;;;;;7.47;1.73;;;17.00;99.90;;;;;;5115320;28;20703;-60
2023/10/04 09:56:00;;;;;;;7.07;1.50;;;17.60;99.90;;;;;;5115032;28;20585;-60
2023/10/04 09:58:29;;;;;;;7.25;2.15;;;17.60;99.90;;;;;;5115253;28;20203;-60
2023/10/04 10:00:59;;;;;;;7.55;1.95;;;18.00;99.90;;;;;;5112622;28;20483;-60
2023/10/04 10:03:30;;;;;;;7.68;1.90;;;18.10;99.90;;;;;;5113853;28;20210;-60
2023/10/04 10:05:59;;;;;;;4.85;1.77;;;18.00;99.90;;;;;;5125945;27;20252;-60
2023/10/04 10:08:29;;;;;;;4.68;1.70;;;18.20;99.90;;;;;;5135608;27;20751;-60
2023/10/04 10:10:56;;;;;;;8.45;1.85;;;18.70;99.90;;;;;;5128327;27;20258;-60
2023/10/04 10:13:25;;;;;;;7.93;1.88;;;19.20;99.90;;;;;;5106808;28;20258;-60
2023/10/04 10:15:53;;;;;;;6.45;2.03;;;19.60;99.90;;;;;;5109657;28;20249;-61
2023/10/04 10:18:22;;;;;;;5.63;1.73;;;19.90;99.90;;;;;;5113863;28;20249;-60
2023/10/04 10:20:50;;;;;;;3.25;1.67;;;20.20;99.90;;;;;;5113631;28;20716;-61
2023/10/04 10:23:21;;;;;;;7.57;2.10;;;20.40;99.90;;;;;;5112241;28;20591;-60
2023/10/04 10:26:21;;;;;;;7.68;2.17;;;20.40;99.90;;;;;;5103993;28;20383;-61
2023/10/04 10:28:49;;;;;;;8.65;2.47;;;20.70;99.90;;;;;;5122423;27;20237;-60
2023/10/04 10:31:20;;;;;;;6.35;2.30;;;21.00;99.90;;;;;;5134882;27;20257;-60
2023/10/04 10:33:50;;;;;;;5.90;1.77;;;20.50;99.90;;;;;;5134840;27;20265;-59
2023/10/04 10:36:22;;;;;;;7.35;2.22;;;20.50;99.90;;;;;;5125032;27;20204;-59
2023/10/04 10:38:51;;;;;;;6.75;2.78;;;20.80;99.90;;;;;;5130079;27;20209;-59
2023/10/04 10:42:02;;;;;;;8.45;2.38;;;20.70;99.90;;;;;;5134245;27;20703;-60
2023/10/04 10:44:33;;;;;;;5.07;2.47;;;20.90;99.90;;;;;;5119988;27;20202;-60
2023/10/04 10:47:07;;;;;;;8.02;2.55;;;21.30;99.90;;;;;;5125596;27;20213;-60
2023/10/04 10:49:52;;;;;;;7.53;2.63;;;21.30;99.90;;;;;;5134774;27;20254;-60
2023/10/04 10:52:28;;;;;;;8.27;2.45;;;20.80;99.90;;;;;;5134472;27;20219;-59
2023/10/04 10:54:57;;;;;;;6.10;2.90;;;20.20;99.90;;;;;;5134275;27;20241;-60
2023/10/04 10:57:27;;;;;;;6.55;2.47;;;19.70;99.90;;;;;;5134107;27;20297;-60
2023/10/04 10:59:57;;;;;;;8.85;2.47;;;19.80;99.90;;;;;;5134486;27;20231;-60
2023/10/04 11:02:25;;;;;;;9.93;2.80;;;19.80;99.90;;;;;;5142768;22;20284;-71
2023/10/04 11:04:54;;;;;;;8.20;2.22;;;19.90;99.90;;;;;;5113918;28;20207;-71
2023/10/04 11:07:22;;;;;;;6.40;2.33;;;20.30;99.90;;;;;;5105746;28;20227;-71
2023/10/04 11:09:51;;;;;;;7.60;2.20;;;20.90;99.90;;;;;;5097256;28;20550;-71
2023/10/04 11:12:22;;;;;;;5.97;2.60;;;21.40;99.90;;;;;;5113750;28;20206;-71
2023/10/04 11:14:50;;;;;;;5.85;2.28;;;21.90;99.90;;;;;;5113075;28;20211;-71
2023/10/04 11:17:21;;;;;;;5.38;2.45;;;22.00;99.90;;;;;;5106519;28;20223;-71
2023/10/04 11:19:50;;;;;;;9.57;2.75;;;21.80;99.90;;;;;;5113673;28;20210;-71
2023/10/04 11:22:19;;;;;;;5.90;2.33;;;21.90;99.90;;;;;;5113668;28;20202;-71
2023/10/04 11:24:47;;;;;;;6.18;2.55;;;22.20;99.90;;;;;;5105362;28;20208;-71
2023/10/04 11:27:22;;;;;;;7.45;2.63;;;22.10;99.90;;;;;;5105043;28;20219;-70
2023/10/04 11:29:52;;;;;;;7.18;2.42;;;21.90;99.90;;;;;;5105050;28;20258;-71
2023/10/04 11:32:22;;;;;;;7.93;3.20;;;22.20;99.90;;;;;;5113500;28;20203;-71
2023/10/04 11:34:51;;;;;;;5.75;2.70;;;22.40;99.90;;;;;;5095883;28;20200;-71
2023/10/04 11:37:18;;;;;;;6.95;3.17;;;22.80;99.90;;;;;;5092400;28;20754;-71
2023/10/04 11:39:46;;;;;;;6.38;3.28;;;23.00;99.90;;;;;;5092842;28;20204;-71
2023/10/04 11:42:19;;;;;;;6.13;3.10;;;23.40;99.90;;;;;;5112824;28;20252;-70
2023/10/04 11:44:48;;;;;;;8.05;3.20;;;23.60;99.90;;;;;;5113511;28;20199;-71
2023/10/04 11:47:28;;;;;;;7.07;3.15;;;23.50;99.90;;;;;;5109247;28;20258;-71
2023/10/04 11:49:58;;;;;;;5.43;2.83;;;23.60;99.90;;;;;;5091949;28;20253;-71
2023/10/04 11:52:30;;;;;;;8.30;3.20;;;23.50;99.90;;;;;;5098009;28;20294;-71
2023/10/04 11:54:59;;;;;;;7.72;3.25;;;23.00;99.90;;;;;;5092848;28;20208;-71
2023/10/04 11:57:27;;;;;;;10.00;3.20;;;22.30;99.90;;;;;;5106559;28;20335;-71
2023/10/04 11:59:57;;;;;;;11.23;3.50;;;22.10;99.90;;;;;;5095930;28;20656;-71
2023/10/04 12:02:26;;;;;;;6.00;2.45;;;22.30;99.90;;;;;;5112802;28;20211;-71
2023/10/04 12:04:54;;;;;;;8.73;2.90;;;22.90;99.90;;;;;;5112507;28;20263;-71
2023/10/04 12:07:25;;;;;;;7.78;2.95;;;23.50;99.90;;;;;;5107113;28;20232;-71
2023/10/04 12:09:53;;;;;;;10.55;3.22;;;24.00;99.90;;;;;;5093345;28;20264;-71
2023/10/04 12:12:21;;;;;;;11.27;3.80;;;24.00;99.90;;;;;;5104746;28;20207;-71
2023/10/04 12:14:49;;;;;;;8.50;3.60;;;23.70;99.90;;;;;;5104493;28;20239;-71
2023/10/04 12:17:17;;;;;;;10.15;3.78;;;23.60;99.90;;;;;;5113168;28;20250;-71
2023/10/04 12:19:46;;;;;;;6.32;3.20;;;23.80;99.90;;;;;;5112911;28;20591;-71
2023/10/04 12:22:14;;;;;;;10.15;3.75;;;23.60;99.90;;;;;;5100521;28;20254;-71
2023/10/04 12:24:46;;;;;;;9.43;3.53;;;23.70;99.90;;;;;;5092364;28;20657;-71
2023/10/04 12:27:16;;;;;;;10.07;3.33;;;24.00;99.90;;;;;;5083999;28;20224;-71
2023/10/04 12:29:44;;;;;;;6.88;3.40;;;24.10;99.90;;;;;;5092184;28;20204;-71
2023/10/04 12:32:14;;;;;;;4.75;3.25;;;24.00;99.90;;;;;;5100459;28;20208;-71
2023/10/04 12:34:42;;;;;;;8.65;3.38;;;23.80;99.90;;;;;;5092003;28;20223;-71
2023/10/04 12:37:12;;;;;;;6.25;3.42;;;23.70;99.90;;;;;;5100459;28;20280;-71
2023/10/04 12:39:43;;;;;;;6.38;3.70;;;23.50;99.90;;;;;;5107575;28;20238;-71
2023/10/04 12:42:11;;;;;;;8.95;3.72;;;23.30;99.90;;;;;;5103459;28;20696;-71
2023/10/04 12:44:41;;;;;;;9.20;3.50;;;23.00;99.90;;;;;;5112271;28;20231;-71
2023/10/04 12:47:09;;;;;;;14.30;4.80;;;22.60;99.90;;;;;;5111857;28;20227;-71
2023/10/04 12:49:38;;;;;;;11.40;4.53;;;22.20;99.90;;;;;;5096520;28;20204;-71
2023/10/04 12:52:07;;;;;;;9.18;4.80;;;22.10;99.90;;;;;;5102310;28;20222;-71
2023/10/04 12:54:36;;;;;;;9.60;4.20;;;22.10;99.90;;;;;;5112136;28;20277;-71
2023/10/04 12:57:04;;;;;;;11.80;3.67;;;22.10;99.90;;;;;;5101629;28;20236;-71
2023/10/04 12:59:33;;;;;;;8.65;4.30;;;22.20;99.90;;;;;;5091667;28;20208;-71
2023/10/04 13:02:01;;;;;;;10.32;4.47;;;22.40;99.90;;;;;;5091404;28;20270;-71